Time;durP1;ratioP1;P1;durP2;ratioP2;P2;SDS_P1;SDS_P2;PMS_P1;PMS_P2;Temp;Humidity;BMP_temperature;BMP_pressure;BME280_temperature;BME280_humidity;BME280_pressure;Samples;Min_cycle;Max_cycle;Signal;HPM_P1;HPM_P2
2022/09/28 03:54:53;;;;;;;;;;;;;;;;;;;;;
2022/09/28 05:54:13;;;;;;;;;;;7.80;99.90;;;;;;6289540;22;19923;-79
2022/09/28 05:56:42;;;;;;;;;;;8.20;99.90;;;;;;6255040;22;19985;-77
2022/09/28 05:59:08;;;;;;;;;;;7.80;99.90;;;;;;6223960;22;20346;-73
2022/09/28 06:01:33;;;;;;;;;;;7.70;99.90;;;;;;6275816;22;19926;-75
2022/09/28 06:03:59;;;;;;;;;;;7.70;99.90;;;;;;6223881;22;19919;-74
2022/09/28 06:09:47;;;;;;;;;;;7.70;99.90;;;;;;6275687;22;19960;-77
2022/09/28 06:12:16;;;;;;;;;;;7.70;99.90;;;;;;6276300;22;20255;-75
2022/09/28 06:14:46;;;;;;;;;;;7.60;99.90;;;;;;6249333;22;19950;-76
2022/09/28 06:17:12;;;;;;;;;;;7.70;99.90;;;;;;6222427;22;19941;-75
2022/09/28 06:19:41;;;;;;;;;;;7.70;99.90;;;;;;6224029;22;19921;-76
2022/09/28 06:22:07;;;;;;;;;;;7.70;99.90;;;;;;6223298;22;19954;-76
2022/09/28 06:24:33;;;;;;;;;;;7.70;99.90;;;;;;6224721;22;19961;-77
2022/09/28 06:27:04;;;;;;;;;;;7.90;99.90;;;;;;6224608;22;19915;-75
2022/09/28 06:29:35;;;;;;;;;;;7.50;99.90;;;;;;6249791;22;19926;-75
2022/09/28 06:32:03;;;;;;;;;;;7.80;99.90;;;;;;6200469;22;20242;-75
2022/09/28 06:34:31;;;;;;;;;;;7.80;99.90;;;;;;6223876;22;19916;-76
2022/09/28 06:36:59;;;;;;;;;;;7.80;99.90;;;;;;6224399;22;19915;-76
2022/09/28 06:39:25;;;;;;;;;;;7.90;99.90;;;;;;6224032;22;19921;-75
2022/09/28 06:41:53;;;;;;;;;;;8.10;99.90;;;;;;6248621;22;19981;-74
2022/09/28 06:44:19;;;;;;;;;;;8.40;99.90;;;;;;6249132;22;19919;-72
2022/09/28 06:46:44;;;;;;;;;;;8.30;99.90;;;;;;6249197;22;19915;-75
2022/09/28 07:29:50;;;;;;;;;;;;;;;;;;;;;
2022/09/28 07:36:57;;;;;;;;;;;11.10;99.90;;;;;;5870781;24;19919;-75
2022/09/28 07:42:46;;;;;;;;;;;11.40;99.90;;;;;;5871877;24;20015;-76
2022/09/28 08:06:01;;;;;;;;;;;13.10;99.90;;;;;;5829069;24;19979;-78
2022/09/28 08:09:05;;;;;;;;;;;;;;;;;;;;;
2022/09/28 08:12:26;;;;;;;;;;;13.50;99.90;;;;;;6063465;23;19917;-77
2022/09/28 08:15:04;;;;;;;;;;;13.60;99.90;;;;;;6125078;23;19979;-74
2022/09/28 08:17:41;;;;;;;;;;;13.80;99.90;;;;;;6242448;22;19990;-75
2022/09/28 08:23:31;;;;;;;;;;;13.90;99.90;;;;;;6250229;22;19994;-79
2022/09/28 08:29:07;;;;;;;;;;;13.90;99.90;;;;;;6151609;23;19944;-78
2022/09/28 08:31:38;;;;;;;;;;;13.90;99.90;;;;;;6215625;22;19989;-75
2022/09/28 08:34:14;;;;;;;;;;;14.00;99.90;;;;;;6275734;22;19942;-75
2022/09/28 08:36:49;;;;;;;;;;;14.00;99.90;;;;;;6245779;22;20689;-86
2022/09/28 08:39:15;;;;;;;;;;;14.00;99.90;;;;;;6246727;22;19915;-72
2022/09/28 08:50:57;;;;;;;;;;;14.00;99.90;;;;;;6247972;22;19922;-75
2022/09/28 08:53:23;;;;;;;;;;;14.10;99.90;;;;;;6222655;22;19922;-75
2022/09/28 08:55:52;;;;;;;;;;;14.20;99.90;;;;;;6247391;22;19965;-78
2022/09/28 08:58:30;;;;;;;;;;;14.30;99.90;;;;;;6222652;22;19919;-76
2022/09/28 09:01:05;;;;;;;;;;;14.40;99.90;;;;;;6222005;22;20318;-75
2022/09/28 09:03:57;;;;;;;;;;;14.40;99.90;;;;;;6247666;22;19958;-77
2022/09/28 09:06:43;;;;;;;;;;;14.60;99.90;;;;;;6222671;22;20013;-76
2022/09/28 09:13:05;;;;;;;;;;;14.70;99.90;;;;;;6230424;22;19916;-75
2022/09/28 09:15:34;;;;;;;;;;;14.70;99.90;;;;;;6224217;22;19915;-74
2022/09/28 09:18:02;;;;;;;;;;;14.70;99.90;;;;;;6224835;22;19954;-75
2022/09/28 09:20:42;;;;;;;;;;;14.80;99.90;;;;;;6248348;22;19946;-76
2022/09/28 09:23:33;;;;;;;;;;;14.70;99.90;;;;;;6247294;22;19941;-77
2022/09/28 09:26:22;;;;;;;;;;;14.80;99.90;;;;;;6192423;22;19926;-77
2022/09/28 09:32:40;;;;;;;;;;;14.80;99.90;;;;;;6248577;22;19973;-74
2022/09/28 09:35:14;;;;;;;;;;;14.80;99.90;;;;;;6205035;22;19942;-81
2022/09/28 09:38:16;;;;;;;;;;;14.90;99.90;;;;;;6222988;22;19919;-82
2022/09/28 09:44:06;;;;;;;;;;;15.20;99.90;;;;;;6281967;22;19955;-79
2022/09/28 10:02:46;;;;;;;;;;;15.20;99.90;;;;;;6274900;22;19919;-74
2022/09/28 10:05:12;;;;;;;;;;;15.20;99.90;;;;;;6247753;22;19953;-75
2022/09/28 10:07:40;;;;;;;;;;;15.20;99.90;;;;;;6274267;22;20320;-72
2022/09/28 10:10:11;;;;;;;;;;;15.00;99.90;;;;;;6247704;22;19923;-76
2022/09/28 10:12:36;;;;;;;;;;;14.80;99.90;;;;;;6247587;22;20250;-71
2022/09/28 10:15:05;;;;;;;;;;;14.70;99.90;;;;;;6248704;22;19926;-80
2022/09/28 10:17:37;;;;;;;;;;;14.70;99.90;;;;;;6247508;22;20000;-78
2022/09/28 10:20:30;;;;;;;;;;;14.70;99.90;;;;;;6247538;22;20008;-82
2022/09/28 10:23:23;;;;;;;;;;;14.80;99.90;;;;;;6221101;22;20340;-80
2022/09/28 10:25:53;;;;;;;;;;;15.00;99.90;;;;;;6223015;22;20211;-80
2022/09/28 10:35:22;;;;;;;;;;;15.50;99.90;;;;;;6235578;22;20334;-77
2022/09/28 10:41:16;;;;;;;;;;;16.00;99.90;;;;;;6226639;22;19947;-79
2022/09/28 10:44:09;;;;;;;;;;;16.20;99.90;;;;;;6221660;22;19986;-79
2022/09/28 10:46:38;;;;;;;;;;;16.30;99.90;;;;;;6221798;22;19922;-81
2022/09/28 10:49:27;;;;;;;;;;;16.50;99.90;;;;;;6222564;22;19915;-78
2022/09/28 10:55:28;;;;;;;;;;;16.00;99.90;;;;;;6074320;23;20011;-79
2022/09/28 10:58:00;;;;;;;;;;;15.80;99.90;;;;;;6210137;23;19924;-81
2022/09/28 11:00:30;;;;;;;;;;;15.80;99.90;;;;;;6191547;23;19966;-76
2022/09/28 11:02:56;;;;;;;;;;;15.70;99.90;;;;;;6217420;23;19920;-78
2022/09/28 11:05:23;;;;;;;;;;;15.80;99.90;;;;;;6218235;23;19958;-78
2022/09/28 11:07:51;;;;;;;;;;;16.00;99.90;;;;;;6218704;23;19915;-77
2022/09/28 11:10:35;;;;;;;;;;;16.10;99.90;;;;;;6194315;23;20297;-78
2022/09/28 11:13:00;;;;;;;;;;;16.10;99.90;;;;;;6220270;23;19994;-78
2022/09/28 11:15:30;;;;;;;;;;;16.00;99.90;;;;;;6195428;23;19950;-77
2022/09/28 11:27:36;;;;;;;;;;;;;;;;;;;;;
2022/09/28 11:30:54;;;;;;;;;;;15.20;99.90;;;;;;6186512;23;20298;-74
2022/09/28 11:33:37;;;;;;;;;;;15.20;99.90;;;;;;6134628;23;19995;-83
2022/09/28 11:46:39;;;;;;;;;;;15.40;99.90;;;;;;6183267;23;20347;-72
2022/09/28 12:23:26;;;;;;;;;;;15.40;99.90;;;;;;6308114;22;19938;-76
2022/09/28 12:27:03;;;;;;;;;;;15.30;99.90;;;;;;6284710;22;19997;-75
2022/09/28 12:29:32;;;;;;;;;;;15.30;99.90;;;;;;6040062;23;20001;-74
2022/09/28 12:32:16;;;;;;;;;;;15.10;99.90;;;;;;6063720;23;20321;-81
2022/09/28 12:38:27;;;;;;;;;;;15.10;99.90;;;;;;6212586;23;19939;-78
2022/09/28 12:48:27;;;;;;;;;;;15.10;99.90;;;;;;5910848;23;19919;-77
2022/09/28 12:58:17;;;;;;;;;;;15.10;99.90;;;;;;6012008;23;19933;-79
2022/09/28 13:15:11;;;;;;;;;;;15.00;99.90;;;;;;6286758;22;20336;-76
2022/09/28 13:17:52;;;;;;;;;;;15.00;99.90;;;;;;6255155;22;19919;-77
2022/09/28 13:20:57;;;;;;;;;;;;;;;;;;;;;
2022/09/28 13:23:43;;;;;;;;;;;14.90;99.90;;;;;;6294784;22;19918;-72
2022/09/28 13:26:30;;;;;;;;;;;14.90;99.90;;;;;;6279690;22;20004;-75
2022/09/28 13:32:34;;;;;;;;;;;14.80;99.90;;;;;;6307369;22;19960;-73
2022/09/28 13:35:51;;;;;;;;;;;;;;;;;;;;;
2022/09/28 13:41:55;;;;;;;;;;;14.70;99.90;;;;;;6152515;23;20063;-75
2022/09/28 13:44:45;;;;;;;;;;;14.70;99.90;;;;;;6104399;23;19921;-74
2022/09/28 13:47:49;;;;;;;;;;;14.60;99.90;;;;;;6124015;23;19916;-76
2022/09/28 13:50:39;;;;;;;;;;;14.60;99.90;;;;;;6077241;23;19917;-73
2022/09/28 13:53:31;;;;;;;;;;;14.60;99.90;;;;;;6075355;23;19999;-80
2022/09/28 13:56:17;;;;;;;;;;;14.70;99.90;;;;;;6075016;23;19916;-76
2022/09/28 13:58:45;;;;;;;;;;;14.60;99.90;;;;;;6234901;22;19926;-74
2022/09/28 14:01:23;;;;;;;;;;;14.60;99.90;;;;;;6191878;23;19922;-76
2022/09/28 14:03:54;;;;;;;;;;;14.50;99.90;;;;;;6191706;23;20337;-75
2022/09/28 14:06:23;;;;;;;;;;;14.50;99.90;;;;;;6192127;23;19925;-75
2022/09/28 14:08:57;;;;;;;;;;;14.50;99.90;;;;;;6167703;23;19915;-73
2022/09/28 14:11:23;;;;;;;;;;;14.50;99.90;;;;;;6218082;23;20297;-75
2022/09/28 14:14:12;;;;;;;;;;;14.50;99.90;;;;;;6193878;23;19965;-74
2022/09/28 14:16:41;;;;;;;;;;;14.50;99.90;;;;;;6217693;23;20338;-75
2022/09/28 14:19:09;;;;;;;;;;;14.50;99.90;;;;;;6217122;23;19986;-74
2022/09/28 14:21:56;;;;;;;;;;;14.40;99.90;;;;;;6192451;23;19969;-74
2022/09/28 14:24:26;;;;;;;;;;;14.40;99.90;;;;;;6217353;23;19935;-74
2022/09/28 14:27:22;;;;;;;;;;;14.30;99.90;;;;;;6217501;23;20434;-73
2022/09/28 14:29:52;;;;;;;;;;;14.30;99.90;;;;;;6242712;22;19919;-74
2022/09/28 14:32:25;;;;;;;;;;;14.20;99.90;;;;;;6217583;23;19965;-73
2022/09/28 14:34:57;;;;;;;;;;;14.20;99.90;;;;;;6191331;23;19923;-74
2022/09/28 14:43:30;;;;;;;;;;;14.10;99.90;;;;;;6224963;22;19915;-76
2022/09/28 14:46:17;;;;;;;;;;;14.20;99.90;;;;;;6278682;22;19919;-75
2022/09/28 14:48:55;;;;;;;;;;;14.00;99.90;;;;;;6254760;22;20040;-74
2022/09/28 14:51:56;;;;;;;;;;;;;;;;;;;;;
2022/09/28 14:54:41;;;;;;;;;;;14.00;99.90;;;;;;6280380;22;19915;-74
2022/09/28 15:00:33;;;;;;;;;;;14.10;99.90;;;;;;6265987;22;19925;-76
2022/09/28 15:03:20;;;;;;;;;;;14.10;99.90;;;;;;6281877;22;19922;-76
2022/09/28 15:12:51;;;;;;;;;;;14.10;99.90;;;;;;6326255;22;19933;-75
2022/09/28 16:03:00;;;;;;;;;;;13.40;99.90;;;;;;6248174;22;19969;-79
2022/09/28 16:35:25;;;;;;;;;;;12.50;99.90;;;;;;6276062;22;20330;-77
2022/09/28 16:38:20;;;;;;;;;;;12.40;99.90;;;;;;6274707;22;19919;-77
2022/09/28 16:40:52;;;;;;;;;;;12.40;99.90;;;;;;6241431;22;20010;-76
2022/09/28 16:43:41;;;;;;;;;;;12.30;99.90;;;;;;6273913;22;19930;-73
2022/09/28 16:56:13;;;;;;;;;;;11.90;99.90;;;;;;6262512;22;19950;-77
2022/09/28 16:58:39;;;;;;;;;;;11.80;99.90;;;;;;6274915;22;19915;-79
2022/09/28 17:01:18;;;;;;;;;;;11.80;99.90;;;;;;6249698;22;19965;-77
2022/09/28 17:03:50;;;;;;;;;;;11.70;99.90;;;;;;6273241;22;19919;-76
2022/09/28 17:16:27;;;;;;;;;;;11.40;99.90;;;;;;6211892;23;19987;-77
2022/09/28 17:18:53;;;;;;;;;;;11.30;99.90;;;;;;6184302;23;19916;-73
2022/09/28 17:21:19;;;;;;;;;;;11.30;99.90;;;;;;6185667;23;19947;-74
2022/09/28 17:23:48;;;;;;;;;;;11.20;99.90;;;;;;6185466;23;19923;-73
2022/09/28 17:26:26;;;;;;;;;;;11.20;99.90;;;;;;6186060;23;19920;-78
2022/09/28 17:28:55;;;;;;;;;;;11.30;99.90;;;;;;6187751;23;19923;-74
2022/09/28 17:31:21;;;;;;;;;;;11.10;99.90;;;;;;6187659;23;19916;-74
2022/09/28 17:33:47;;;;;;;;;;;11.00;99.90;;;;;;6162550;23;19991;-72
2022/09/28 17:36:13;;;;;;;;;;;11.00;99.90;;;;;;6213050;23;19947;-75
2022/09/28 17:38:41;;;;;;;;;;;11.00;99.90;;;;;;6187477;23;20250;-74
2022/09/28 17:41:14;;;;;;;;;;;10.80;99.90;;;;;;6244279;22;20335;-77
2022/09/28 17:43:55;;;;;;;;;;;10.60;99.90;;;;;;6250235;22;19954;-74
2022/09/28 17:46:21;;;;;;;;;;;10.70;99.90;;;;;;6249210;22;19919;-77
2022/09/28 17:48:58;;;;;;;;;;;10.50;99.90;;;;;;6249195;22;19920;-76
2022/09/28 17:51:49;;;;;;;;;;;10.60;99.90;;;;;;6274311;22;20313;-75
2022/09/28 17:54:21;;;;;;;;;;;10.40;99.90;;;;;;6274212;22;20322;-77
2022/09/28 17:56:47;;;;;;;;;;;10.30;99.90;;;;;;6249490;22;20365;-79
2022/09/28 17:59:14;;;;;;;;;;;10.30;99.90;;;;;;6273970;22;20001;-74
2022/09/28 18:01:39;;;;;;;;;;;10.20;99.90;;;;;;6274520;22;19916;-74
2022/09/28 18:04:06;;;;;;;;;;;10.20;99.90;;;;;;6274550;22;19926;-74
2022/09/28 18:06:32;;;;;;;;;;;10.20;99.90;;;;;;6248906;22;19915;-74
2022/09/28 18:08:58;;;;;;;;;;;10.10;99.90;;;;;;6272924;22;19915;-75
2022/09/28 18:24:59;;;;;;;;;;;9.90;99.90;;;;;;6273060;22;19907;-77
2022/09/28 18:27:26;;;;;;;;;;;9.80;99.90;;;;;;6248407;22;19915;-74
2022/09/28 18:30:38;;;;;;;;;;;9.80;99.90;;;;;;6273806;22;19916;-77
2022/09/28 18:33:25;;;;;;;;;;;9.80;99.90;;;;;;6274880;22;19942;-77
2022/09/28 18:39:52;;;;;;;;;;;9.50;99.90;;;;;;6241274;22;19915;-77
2022/09/28 18:42:38;;;;;;;;;;;9.60;99.90;;;;;;6189550;23;19926;-77
2022/09/28 18:45:40;;;;;;;;;;;9.50;99.90;;;;;;6217333;23;19927;-79
2022/09/28 22:59:16;;;;;;;;;;;6.90;99.90;;;;;;6203393;23;19915;-78
2022/09/28 23:01:41;;;;;;;;;;;7.00;99.90;;;;;;6133502;23;19991;-78
2022/09/28 23:04:15;;;;;;;;;;;6.90;99.90;;;;;;6135596;23;19972;-79
2022/09/28 23:07:08;;;;;;;;;;;7.00;99.90;;;;;;6135691;23;19917;-77
2022/09/28 23:09:34;;;;;;;;;;;6.90;99.90;;;;;;6135452;23;19927;-71
2022/09/28 23:12:02;;;;;;;;;;;7.10;99.90;;;;;;6185144;23;20038;-74
2022/09/28 23:14:27;;;;;;;;;;;6.90;99.90;;;;;;6135725;23;19916;-75
2022/09/28 23:16:53;;;;;;;;;;;7.20;99.90;;;;;;6135704;23;19920;-74
2022/09/28 23:19:18;;;;;;;;;;;6.90;99.90;;;;;;6135223;23;19924;-73
2022/09/28 23:21:45;;;;;;;;;;;6.80;99.90;;;;;;6158366;23;20232;-74
2022/09/28 23:24:10;;;;;;;;;;;7.10;99.90;;;;;;6135341;23;19920;-74
2022/09/28 23:26:36;;;;;;;;;;;6.70;99.90;;;;;;6191118;23;19919;-75
2022/09/28 23:29:02;;;;;;;;;;;6.70;99.90;;;;;;6195560;23;20363;-76
2022/09/28 23:31:28;;;;;;;;;;;6.70;99.90;;;;;;6221044;23;19915;-75
2022/09/28 23:33:58;;;;;;;;;;;6.70;99.90;;;;;;6195785;23;20297;-75
2022/09/28 23:36:24;;;;;;;;;;;6.60;99.90;;;;;;6196146;23;20296;-75
2022/09/28 23:38:49;;;;;;;;;;;6.60;99.90;;;;;;6221101;22;19923;-75
2022/09/28 23:41:15;;;;;;;;;;;6.60;99.90;;;;;;6221330;23;20001;-75
2022/09/28 23:43:41;;;;;;;;;;;6.70;99.90;;;;;;6196143;23;19942;-75
2022/09/28 23:46:06;;;;;;;;;;;6.70;99.90;;;;;;6221153;23;20291;-75
2022/09/28 23:48:32;;;;;;;;;;;6.60;99.90;;;;;;6196200;22;19994;-75
2022/09/28 23:50:58;;;;;;;;;;;6.60;99.90;;;;;;6195542;23;19927;-75
2022/09/28 23:53:23;;;;;;;;;;;6.70;99.90;;;;;;6221156;23;19924;-75
2022/09/28 23:55:49;;;;;;;;;;;6.60;99.90;;;;;;6221362;23;19973;-75
2022/09/28 23:58:15;;;;;;;;;;;6.50;99.90;;;;;;6171322;23;20331;-73
